createdAt,value
2022-09-13T00:02:28.889Z,65.83
2022-09-13T00:04:56.831Z,66.05
2022-09-13T00:07:27.414Z,65.98
2022-09-13T00:09:57.899Z,66.45
2022-09-13T00:12:31.430Z,65.95
2022-09-13T00:15:02.976Z,65.99
2022-09-13T00:17:34.942Z,66.02
2022-09-13T00:20:05.490Z,65.99
2022-09-13T00:22:33.501Z,65.87
2022-09-13T00:25:05.481Z,65.70
2022-09-13T00:27:33.840Z,65.99
2022-09-13T00:30:01.679Z,66.11
2022-09-13T00:32:41.433Z,66.14
2022-09-13T00:35:10.955Z,65.82
2022-09-13T00:37:39.245Z,65.65
2022-09-13T00:40:08.788Z,65.80
2022-09-13T00:42:37.388Z,65.61
2022-09-13T00:45:17.033Z,66.04
2022-09-13T00:47:56.506Z,66.02
2022-09-13T00:50:33.806Z,66.08
2022-09-13T00:53:09.730Z,65.98
2022-09-13T00:55:41.796Z,66.00
2022-09-13T00:58:14.312Z,66.04
2022-09-13T01:00:42.321Z,65.71
2022-09-13T01:03:13.431Z,65.87
2022-09-13T01:05:47.542Z,66.00
2022-09-13T01:08:25.057Z,66.26
2022-09-13T01:10:54.971Z,66.28
2022-09-13T01:13:27.524Z,66.09
2022-09-13T01:15:55.532Z,66.33
2022-09-13T01:18:23.565Z,66.02
2022-09-13T01:21:45.945Z,65.73
2022-09-13T01:24:42.173Z,65.84
2022-09-13T01:27:24.856Z,65.60
2022-09-13T01:30:34.645Z,65.34
2022-09-13T01:33:32.996Z,65.36
2022-09-13T01:36:32.952Z,65.17
2022-09-13T01:39:06.706Z,65.10
2022-09-13T01:42:01.751Z,65.12
2022-09-13T01:44:50.758Z,65.38
2022-09-13T01:47:30.568Z,65.47
2022-09-13T01:50:13.115Z,65.29
2022-09-13T01:52:50.321Z,65.20
2022-09-13T01:55:37.518Z,65.51
2022-09-13T01:58:25.677Z,65.55
2022-09-13T02:01:01.587Z,65.58
2022-09-13T02:03:40.282Z,65.53
2022-09-13T02:06:22.354Z,65.22
2022-09-13T02:08:54.853Z,65.51
2022-09-13T02:11:25.878Z,65.20
2022-09-13T02:13:58.741Z,65.37
2022-09-13T02:16:39.048Z,65.22
2022-09-13T02:19:13.613Z,65.05
2022-09-13T02:21:47.884Z,65.11
2022-09-13T02:24:20.955Z,65.25
2022-09-13T02:26:57.251Z,65.03
2022-09-13T02:29:28.843Z,65.20
2022-09-13T02:32:00.432Z,65.10
2022-09-13T02:34:36.020Z,65.12
2022-09-13T02:37:06.895Z,65.12
2022-09-13T02:39:37.171Z,65.28
2022-09-13T02:42:12.429Z,65.10
2022-09-13T02:44:46.870Z,65.22
2022-09-13T02:47:33.854Z,65.48
2022-09-13T02:50:11.769Z,65.60
2022-09-13T02:53:02.568Z,66.53
2022-09-13T02:55:39.541Z,67.00
2022-09-13T02:58:13.384Z,66.65
2022-09-13T03:00:45.206Z,66.63
2022-09-13T03:03:16.597Z,66.30
2022-09-13T03:05:45.069Z,66.51
2022-09-13T03:08:17.820Z,66.52
2022-09-13T03:11:10.515Z,66.28
2022-09-13T03:13:52.003Z,66.43
2022-09-13T03:16:39.382Z,66.70
2022-09-13T03:19:35.188Z,66.81
2022-09-13T03:22:45.367Z,66.98
2022-09-13T03:25:27.999Z,66.98
2022-09-13T03:28:07.772Z,66.97
2022-09-13T03:30:43.459Z,67.28
2022-09-13T03:33:29.454Z,67.27
2022-09-13T03:36:07.266Z,67.06
2022-09-13T03:38:41.189Z,67.23
2022-09-13T03:41:15.604Z,67.09
2022-09-13T03:43:58.795Z,67.07
2022-09-13T03:46:37.946Z,67.01
2022-09-13T03:49:09.150Z,66.90
2022-09-13T03:51:38.066Z,67.02
2022-09-13T03:54:11.081Z,67.04
2022-09-13T03:56:40.870Z,67.20
2022-09-13T03:59:08.832Z,67.05
2022-09-13T04:01:37.963Z,67.23
2022-09-13T04:04:06.077Z,67.42
2022-09-13T04:06:36.618Z,67.17
2022-09-13T04:09:04.506Z,67.63
2022-09-13T04:11:33.424Z,68.27
2022-09-13T04:14:05.634Z,67.82
2022-09-13T04:16:39.411Z,67.88
2022-09-13T04:19:08.127Z,68.09
2022-09-13T04:21:44.186Z,68.03
2022-09-13T04:24:15.102Z,67.89
2022-09-13T04:26:51.141Z,67.86
2022-09-13T04:29:20.634Z,67.79
2022-09-13T04:31:52.906Z,67.92
2022-09-13T04:34:22.296Z,67.74
2022-09-13T04:36:50.956Z,67.78
2022-09-13T04:39:23.207Z,67.92
2022-09-13T04:41:51.985Z,67.83
2022-09-13T04:44:24.418Z,68.08
2022-09-13T04:46:52.957Z,68.41
2022-09-13T04:49:21.884Z,68.37
2022-09-13T04:51:53.107Z,68.28
2022-09-13T04:54:30.523Z,68.38
2022-09-13T04:57:23.852Z,68.52
2022-09-13T04:59:53.030Z,68.46
2022-09-13T05:02:21.131Z,68.34
2022-09-13T05:04:52.033Z,68.26
2022-09-13T05:07:22.814Z,68.40
2022-09-13T05:09:51.007Z,68.31
2022-09-13T05:12:18.955Z,68.26
2022-09-13T05:14:46.736Z,68.23
2022-09-13T05:17:16.234Z,68.00
2022-09-13T05:19:43.947Z,68.07
2022-09-13T05:22:11.772Z,67.76
2022-09-13T05:24:39.955Z,67.81
2022-09-13T05:27:09.355Z,67.87
2022-09-13T05:29:39.354Z,67.89
2022-09-13T05:32:07.196Z,67.92
2022-09-13T05:34:36.378Z,68.12
2022-09-13T05:37:04.252Z,68.09
2022-09-13T05:39:43.993Z,67.85
2022-09-13T05:42:20.150Z,68.06
2022-09-13T05:44:50.062Z,67.84
2022-09-13T05:47:19.671Z,67.94
2022-09-13T05:50:08.609Z,67.93
2022-09-13T05:52:39.848Z,68.00
2022-09-13T05:55:08.203Z,67.90
2022-09-13T05:57:37.507Z,68.25
2022-09-13T06:00:06.455Z,68.19
2022-09-13T06:02:40.370Z,67.99
2022-09-13T06:05:10.585Z,67.73
2022-09-13T06:07:48.866Z,67.84
2022-09-13T06:10:17.749Z,67.82
2022-09-13T06:12:45.563Z,67.73
2022-09-13T06:15:13.707Z,67.63
2022-09-13T06:17:41.658Z,67.78
2022-09-13T06:20:16.006Z,67.77
2022-09-13T06:22:43.796Z,67.75
2022-09-13T06:25:11.528Z,67.61
2022-09-13T06:27:39.804Z,67.65
2022-09-13T06:30:09.179Z,67.71
2022-09-13T06:32:37.347Z,67.44
2022-09-13T06:35:09.522Z,67.45
2022-09-13T06:37:38.806Z,66.92
2022-09-13T06:40:13.717Z,66.88
2022-09-13T06:42:41.708Z,66.84
2022-09-13T06:45:10.639Z,66.88
2022-09-13T06:47:40.758Z,67.25
2022-09-13T06:50:11.528Z,66.91
2022-09-13T06:52:41.665Z,67.23
2022-09-13T06:55:12.723Z,67.13
2022-09-13T06:57:41.427Z,67.12
2022-09-13T07:00:13.426Z,67.16
2022-09-13T07:02:41.311Z,67.19
2022-09-13T07:05:10.867Z,67.15
2022-09-13T07:07:38.680Z,67.34
2022-09-13T07:10:21.103Z,67.22
2022-09-13T07:12:49.306Z,67.14
2022-09-13T07:15:19.375Z,67.18
2022-09-13T07:17:47.276Z,67.01
2022-09-13T07:20:15.896Z,66.97
2022-09-13T07:22:44.465Z,66.94
2022-09-13T07:25:13.735Z,66.87
2022-09-13T07:27:41.990Z,66.98
2022-09-13T07:30:13.295Z,67.00
2022-09-13T07:32:42.490Z,66.83
2022-09-13T07:35:14.732Z,66.70
2022-09-13T07:37:42.727Z,66.90
2022-09-13T07:40:19.521Z,66.87
2022-09-13T07:42:54.992Z,66.81
2022-09-13T07:45:23.899Z,66.40
2022-09-13T07:47:53.633Z,66.45
2022-09-13T07:50:21.477Z,66.43
2022-09-13T07:52:49.391Z,66.47
2022-09-13T07:55:17.259Z,66.51
2022-09-13T07:57:49.270Z,66.49
2022-09-13T08:00:29.938Z,66.33
2022-09-13T08:02:57.777Z,65.99
2022-09-13T08:05:25.775Z,65.66
2022-09-13T08:07:53.648Z,65.60
2022-09-13T08:10:21.591Z,65.73
2022-09-13T08:13:01.908Z,65.83
2022-09-13T08:15:29.978Z,66.25
2022-09-13T08:18:00.420Z,66.26
2022-09-13T08:20:38.037Z,66.35
2022-09-13T08:23:07.061Z,66.23
2022-09-13T08:25:35.588Z,66.25
2022-09-13T08:28:18.948Z,66.18
2022-09-13T08:30:49.341Z,66.43
2022-09-13T08:33:23.155Z,66.68
2022-09-13T08:35:52.510Z,66.89
2022-09-13T08:38:23.009Z,66.80
2022-09-13T08:40:54.659Z,66.70
2022-09-13T08:43:49.232Z,66.35
2022-09-13T08:46:22.292Z,67.13
2022-09-13T08:48:57.370Z,66.85
2022-09-13T08:51:33.228Z,66.91
2022-09-13T08:54:03.001Z,66.67
2022-09-13T08:56:42.852Z,66.58
2022-09-13T08:59:33.178Z,66.44
2022-09-13T09:02:23.283Z,66.12
2022-09-13T09:04:59.372Z,65.99
2022-09-13T09:07:38.208Z,65.89
2022-09-13T09:10:15.150Z,65.65
2022-09-13T09:12:47.209Z,65.61
2022-09-13T09:15:21.471Z,65.38
2022-09-13T09:18:05.399Z,65.23
2022-09-13T09:20:39.131Z,64.89
2022-09-13T09:23:16.712Z,64.82
2022-09-13T09:25:49.105Z,65.32
2022-09-13T09:28:18.587Z,65.56
2022-09-13T09:31:07.356Z,65.24
2022-09-13T09:33:52.581Z,65.20
2022-09-13T09:36:34.860Z,65.27
2022-09-13T09:39:05.453Z,64.86
2022-09-13T09:41:37.018Z,64.91
2022-09-13T09:44:18.195Z,65.71
2022-09-13T09:46:49.973Z,65.98
2022-09-13T09:49:44.840Z,66.62
2022-09-13T09:52:21.159Z,66.50
2022-09-13T09:54:56.737Z,66.30
2022-09-13T09:57:54.028Z,66.10
2022-09-13T10:00:24.506Z,66.05
2022-09-13T10:02:58.207Z,65.90
2022-09-13T10:05:27.809Z,66.07
2022-09-13T10:08:02.833Z,65.89
2022-09-13T10:11:07.962Z,65.41
2022-09-13T10:13:38.848Z,64.50
2022-09-13T10:16:23.992Z,64.07
2022-09-13T10:18:56.214Z,64.15
2022-09-13T10:21:26.287Z,64.89
2022-09-13T10:24:22.415Z,65.56
2022-09-13T10:26:50.281Z,66.20
2022-09-13T10:29:21.270Z,66.10
2022-09-13T10:31:55.330Z,65.74
2022-09-13T10:34:28.570Z,65.76
2022-09-13T10:37:03.991Z,65.85
2022-09-13T10:39:36.408Z,66.16
2022-09-13T10:42:10.787Z,66.11
2022-09-13T10:44:42.804Z,65.82
2022-09-13T10:47:15.782Z,65.90
2022-09-13T10:49:49.716Z,66.09
2022-09-13T10:52:28.617Z,66.89
2022-09-13T10:54:56.996Z,66.73
2022-09-13T10:57:35.415Z,66.72
2022-09-13T11:00:06.548Z,66.94
2022-09-13T11:03:03.270Z,67.36
2022-09-13T11:05:38.823Z,67.84
2022-09-13T11:08:43.450Z,68.08
2022-09-13T11:11:20.469Z,67.93
2022-09-13T11:14:01.728Z,67.56
2022-09-13T11:17:08.842Z,67.22
2022-09-13T11:20:00.851Z,67.48
2022-09-13T11:23:07.156Z,67.28
2022-09-13T11:25:55.968Z,67.20
2022-09-13T11:28:39.408Z,67.41
2022-09-13T11:31:38.300Z,67.50
2022-09-13T11:34:33.239Z,67.77
2022-09-13T11:37:30.499Z,67.53
2022-09-13T11:40:16.609Z,67.64
2022-09-13T11:42:52.295Z,67.97
2022-09-13T11:45:24.059Z,68.09
2022-09-13T11:48:10.646Z,67.71
2022-09-13T11:50:57.219Z,67.69
2022-09-13T11:53:52.722Z,67.55
2022-09-13T11:56:26.108Z,67.67
2022-09-13T11:59:15.019Z,67.84
2022-09-13T12:01:47.443Z,68.00
2022-09-13T12:04:27.751Z,68.12
2022-09-13T12:07:02.278Z,68.15
2022-09-13T12:09:36.268Z,67.88
2022-09-13T12:12:07.007Z,69.50
2022-09-13T12:14:43.761Z,68.08
2022-09-13T12:17:29.000Z,67.83
2022-09-13T12:20:00.249Z,68.15
2022-09-13T12:22:37.323Z,67.91
2022-09-13T12:25:13.793Z,67.90
2022-09-13T12:27:57.321Z,67.87
2022-09-13T12:30:29.498Z,67.67
2022-09-13T12:32:59.696Z,68.57
2022-09-13T12:35:35.568Z,69.01
2022-09-13T12:38:32.176Z,69.24
2022-09-13T12:41:18.406Z,68.83
2022-09-13T12:44:22.261Z,68.66
2022-09-13T12:47:13.368Z,67.66
2022-09-13T12:50:15.109Z,67.13
2022-09-13T12:52:59.245Z,67.28
2022-09-13T12:56:02.385Z,68.58
2022-09-13T12:58:57.148Z,68.92
2022-09-13T13:01:30.840Z,69.24
2022-09-13T13:04:04.101Z,69.87
2022-09-13T13:06:37.133Z,69.62
2022-09-13T13:09:29.092Z,70.21
2022-09-13T13:12:01.226Z,70.20
2022-09-13T13:14:45.412Z,69.96
2022-09-13T13:17:37.764Z,69.41
2022-09-13T13:20:47.002Z,68.35
2022-09-13T13:23:25.655Z,67.13
2022-09-13T13:26:34.104Z,67.23
2022-09-13T13:29:21.146Z,66.88
2022-09-13T13:32:16.531Z,66.98
2022-09-13T13:34:48.927Z,66.83
2022-09-13T13:37:38.038Z,67.17
2022-09-13T13:40:26.975Z,67.58
2022-09-13T13:43:33.823Z,67.19
2022-09-13T13:46:28.804Z,67.22
2022-09-13T13:48:57.436Z,67.20
2022-09-13T13:51:30.184Z,67.26
2022-09-13T13:54:06.617Z,67.17
2022-09-13T13:56:46.965Z,67.02
2022-09-13T13:59:20.825Z,67.05
2022-09-13T14:01:51.423Z,67.14
2022-09-13T14:04:58.298Z,66.50
2022-09-13T14:08:23.961Z,66.51
2022-09-13T14:11:12.000Z,66.17
2022-09-13T14:13:53.474Z,65.75
2022-09-13T14:16:36.867Z,65.82
2022-09-13T14:19:19.896Z,65.41
2022-09-13T14:22:13.692Z,65.02
2022-09-13T14:24:46.369Z,64.96
2022-09-13T14:27:22.567Z,64.58
2022-09-13T14:29:52.254Z,64.58
2022-09-13T14:32:23.521Z,64.75
2022-09-13T14:34:56.795Z,65.16
2022-09-13T14:37:33.260Z,65.49
2022-09-13T14:40:04.388Z,65.58
2022-09-13T14:42:45.073Z,65.47
2022-09-13T14:45:14.909Z,65.37
2022-09-13T14:47:50.768Z,64.95
2022-09-13T14:50:21.976Z,64.14
2022-09-13T14:52:54.640Z,63.77
2022-09-13T14:55:28.139Z,63.66
2022-09-13T14:58:04.308Z,63.82
2022-09-13T15:00:35.129Z,63.53
2022-09-13T15:03:13.740Z,63.18
2022-09-13T15:05:42.042Z,63.31
2022-09-13T15:08:53.686Z,63.05
2022-09-13T15:11:31.072Z,63.41
2022-09-13T15:14:23.502Z,63.53
2022-09-13T15:16:54.535Z,63.59
2022-09-13T15:19:40.201Z,63.84
2022-09-13T15:22:34.761Z,63.76
2022-09-13T15:25:06.005Z,61.95
2022-09-13T15:27:45.469Z,64.60
2022-09-13T15:30:22.415Z,64.86
2022-09-13T15:32:51.419Z,65.10
2022-09-13T15:35:24.566Z,65.14
2022-09-13T15:38:01.010Z,65.01
2022-09-13T15:40:42.003Z,65.18
2022-09-13T15:43:09.917Z,65.07
2022-09-13T15:45:39.149Z,64.87
2022-09-13T15:48:16.414Z,64.96
2022-09-13T15:51:07.128Z,64.68
2022-09-13T15:53:35.813Z,64.84
2022-09-13T15:56:05.268Z,64.44
2022-09-13T15:58:35.854Z,64.32
2022-09-13T16:01:05.551Z,64.39
2022-09-13T16:03:33.613Z,64.39
2022-09-13T16:06:21.502Z,64.48
2022-09-13T16:08:59.228Z,64.24
2022-09-13T16:11:27.153Z,63.84
2022-09-13T16:13:56.781Z,63.86
2022-09-13T16:16:26.139Z,63.78
2022-09-13T16:18:53.963Z,63.40
2022-09-13T16:21:23.919Z,63.23
2022-09-13T16:23:54.033Z,63.57
2022-09-13T16:26:23.824Z,63.25
2022-09-13T16:28:51.663Z,62.77
2022-09-13T16:31:20.281Z,63.15
2022-09-13T16:33:57.077Z,62.81
2022-09-13T16:36:27.642Z,62.81
2022-09-13T16:39:01.733Z,63.05
2022-09-13T16:41:31.739Z,63.23
2022-09-13T16:43:59.662Z,63.56
2022-09-13T16:46:30.790Z,63.60
2022-09-13T16:49:00.541Z,63.70
2022-09-13T16:51:28.395Z,63.78
2022-09-13T16:54:02.767Z,63.45
2022-09-13T16:56:32.022Z,63.47
2022-09-13T16:58:59.869Z,63.54
2022-09-13T17:01:29.896Z,63.52
2022-09-13T17:03:58.694Z,63.54
2022-09-13T17:06:30.339Z,63.67
2022-09-13T17:09:02.100Z,63.81
2022-09-13T17:11:32.762Z,63.93
2022-09-13T17:14:05.443Z,64.03
2022-09-13T17:16:37.325Z,64.19
2022-09-13T17:19:10.916Z,64.35
2022-09-13T17:21:40.124Z,64.70
2022-09-13T17:24:13.286Z,64.69
2022-09-13T17:26:41.726Z,64.65
2022-09-13T17:29:10.472Z,65.02
2022-09-13T17:31:38.441Z,65.13
2022-09-13T17:34:06.296Z,65.02
2022-09-13T17:36:34.295Z,65.31
2022-09-13T17:39:04.085Z,65.43
2022-09-13T17:41:32.191Z,65.45
2022-09-13T17:44:00.299Z,65.42
2022-09-13T17:46:30.104Z,65.69
2022-09-13T17:48:59.615Z,65.90
2022-09-13T17:51:32.046Z,65.91
2022-09-13T17:54:02.255Z,65.73
2022-09-13T17:56:36.106Z,66.00
2022-09-13T17:59:10.161Z,65.75
2022-09-13T18:01:40.849Z,66.03
2022-09-13T18:04:09.261Z,65.75
2022-09-13T18:06:38.147Z,65.68
2022-09-13T18:09:06.393Z,65.59
2022-09-13T18:11:35.564Z,65.49
2022-09-13T18:14:03.380Z,65.60
2022-09-13T18:16:34.768Z,65.92
2022-09-13T18:19:02.751Z,66.00
2022-09-13T18:21:30.700Z,65.98
2022-09-13T18:24:01.546Z,66.09
2022-09-13T18:26:32.473Z,66.00
2022-09-13T18:29:03.241Z,66.14
2022-09-13T18:31:32.949Z,66.26
2022-09-13T18:34:03.179Z,66.39
2022-09-13T18:36:33.266Z,66.21
2022-09-13T18:39:03.017Z,65.70
2022-09-13T18:41:33.356Z,66.18
2022-09-13T18:44:04.876Z,66.20
2022-09-13T18:46:34.308Z,66.25
2022-09-13T18:49:03.169Z,66.25
2022-09-13T18:51:33.085Z,66.17
2022-09-13T18:54:01.863Z,66.60
2022-09-13T18:56:30.474Z,66.67
2022-09-13T18:59:00.824Z,66.79
2022-09-13T19:01:32.713Z,66.64
2022-09-13T19:04:02.677Z,66.74
2022-09-13T19:06:33.084Z,66.55
2022-09-13T19:09:03.572Z,66.47
2022-09-13T19:11:48.252Z,66.71
2022-09-13T19:14:19.565Z,66.72
2022-09-13T19:16:48.717Z,66.79
2022-09-13T19:19:16.579Z,66.82
2022-09-13T19:21:44.783Z,66.95
2022-09-13T19:24:17.574Z,66.78
2022-09-13T19:26:47.669Z,66.88
2022-09-13T19:29:17.762Z,67.07
2022-09-13T19:31:49.405Z,67.12
2022-09-13T19:34:19.079Z,66.81
2022-09-13T19:36:48.959Z,66.88
2022-09-13T19:39:16.797Z,67.12
2022-09-13T19:41:44.629Z,66.85
2022-09-13T19:44:18.284Z,66.64
2022-09-13T19:46:46.411Z,67.10
2022-09-13T19:49:17.763Z,67.23
2022-09-13T19:51:51.417Z,67.16
2022-09-13T19:54:20.581Z,67.15
2022-09-13T19:56:48.519Z,67.25
2022-09-13T19:59:19.706Z,67.02
2022-09-13T20:01:48.768Z,67.19
2022-09-13T20:04:20.372Z,67.13
2022-09-13T20:06:50.910Z,67.16
2022-09-13T20:09:20.470Z,67.09
2022-09-13T20:11:52.411Z,67.76
2022-09-13T20:14:21.925Z,67.48
2022-09-13T20:16:50.014Z,67.81
2022-09-13T20:19:42.456Z,67.64
2022-09-13T20:22:12.128Z,67.46
2022-09-13T20:24:39.970Z,67.89
2022-09-13T20:27:10.870Z,68.19
2022-09-13T20:29:39.869Z,67.79
2022-09-13T20:32:08.019Z,67.81
2022-09-13T20:34:39.445Z,68.05
2022-09-13T20:37:07.239Z,68.19
2022-09-13T20:39:35.127Z,68.27
2022-09-13T20:42:02.931Z,67.93
2022-09-13T20:44:40.343Z,68.33
2022-09-13T20:47:08.447Z,68.35
2022-09-13T20:49:39.911Z,68.20
2022-09-13T20:52:07.661Z,68.38
2022-09-13T20:54:36.095Z,68.41
2022-09-13T20:57:03.860Z,68.39
2022-09-13T20:59:32.420Z,68.48
2022-09-13T21:02:03.481Z,68.41
2022-09-13T21:04:34.212Z,68.56
2022-09-13T21:07:20.907Z,68.64
2022-09-13T21:09:48.725Z,68.87
2022-09-13T21:12:17.155Z,68.48
2022-09-13T21:14:46.294Z,68.80
2022-09-13T21:17:16.856Z,69.00
2022-09-13T21:19:44.601Z,68.90
2022-09-13T21:22:13.803Z,68.60
2022-09-13T21:24:41.667Z,68.83
2022-09-13T21:27:09.597Z,68.70
2022-09-13T21:29:37.582Z,68.91
2022-09-13T21:32:10.910Z,68.65
2022-09-13T21:34:38.872Z,68.57
2022-09-13T21:37:06.635Z,68.63
2022-09-13T21:39:44.385Z,68.54
2022-09-13T21:42:12.280Z,68.90
2022-09-13T21:44:43.483Z,68.85
2022-09-13T21:47:11.557Z,68.50
2022-09-13T21:49:42.806Z,68.61
2022-09-13T21:52:10.647Z,69.04
2022-09-13T21:54:38.586Z,69.00
2022-09-13T21:57:07.934Z,68.80
2022-09-13T21:59:44.820Z,68.80
2022-09-13T22:02:13.026Z,68.61
2022-09-13T22:04:40.865Z,68.71
2022-09-13T22:07:08.721Z,68.99
2022-09-13T22:09:39.550Z,69.15
2022-09-13T22:12:09.202Z,68.90
2022-09-13T22:14:40.092Z,69.04
2022-09-13T22:17:10.373Z,68.87
2022-09-13T22:19:41.200Z,69.06
2022-09-13T22:22:09.049Z,68.95
2022-09-13T22:24:36.813Z,69.00
2022-09-13T22:27:04.962Z,69.12
2022-09-13T22:29:34.411Z,69.43
2022-09-13T22:32:02.548Z,69.61
2022-09-13T22:34:30.978Z,69.20
2022-09-13T22:37:00.042Z,69.29
2022-09-13T22:39:28.076Z,69.62
2022-09-13T22:41:56.044Z,69.63
2022-09-13T22:44:23.968Z,69.32
2022-09-13T22:46:53.255Z,69.39
2022-09-13T22:49:21.118Z,69.30
2022-09-13T22:51:49.352Z,69.75
2022-09-13T22:54:19.113Z,69.50
2022-09-13T22:56:47.496Z,69.63
2022-09-13T22:59:18.547Z,69.58
2022-09-13T23:01:46.493Z,69.81
2022-09-13T23:04:15.917Z,69.57
2022-09-13T23:06:44.816Z,69.43
2022-09-13T23:09:15.190Z,69.55
2022-09-13T23:11:43.122Z,69.45
2022-09-13T23:14:13.120Z,69.76
2022-09-13T23:16:43.256Z,69.72
2022-09-13T23:19:12.931Z,69.69
2022-09-13T23:21:42.976Z,69.41
2022-09-13T23:24:18.073Z,69.24
2022-09-13T23:26:46.856Z,69.31
2022-09-13T23:29:16.932Z,69.55
2022-09-13T23:31:46.847Z,69.58
2022-09-13T23:34:18.360Z,68.93
2022-09-13T23:36:47.848Z,69.25
2022-09-13T23:39:17.535Z,69.04
2022-09-13T23:41:47.050Z,69.03
2022-09-13T23:44:15.122Z,69.51
2022-09-13T23:46:43.102Z,69.45
2022-09-13T23:49:11.023Z,69.70
2022-09-13T23:51:38.983Z,69.77
2022-09-13T23:54:08.918Z,69.74
2022-09-13T23:56:37.353Z,69.69
2022-09-13T23:59:06.181Z,69.60
